Time;durP1;ratioP1;P1;durP2;ratioP2;P2;SDS_P1;SDS_P2;PMS_P1;PMS_P2;Temp;Humidity;BMP_temperature;BMP_pressure;BME280_temperature;BME280_humidity;BME280_pressure;Samples;Min_cycle;Max_cycle;Signal;HPM_P1;HPM_P2
2023/04/16 00:03:00;;;;;;;14.90;11.40;;;;;;;10.78;76.84;99927.21;131175;1253;105864;-77
2023/04/16 00:06:06;;;;;;;12.20;9.30;;;;;;;10.79;76.87;99928.51;131175;1253;107541;-77
2023/04/16 00:09:11;;;;;;;11.70;9.30;;;;;;;10.77;76.75;99926.04;131232;1253;107310;-78
2023/04/16 00:12:17;;;;;;;12.60;9.00;;;;;;;10.76;76.79;99927.04;131230;1253;106484;-78
2023/04/16 00:15:22;;;;;;;9.30;7.80;;;;;;;10.76;76.97;99931.67;131128;1253;107532;-77
2023/04/16 00:18:27;;;;;;;7.90;5.90;;;;;;;10.75;77.02;99931.43;131326;1248;106664;-77
2023/04/16 00:21:33;;;;;;;9.00;7.20;;;;;;;10.74;76.91;99926.73;131259;1252;107547;-77
2023/04/16 00:24:38;;;;;;;9.00;7.20;;;;;;;10.75;77.10;99925.59;131217;1261;107484;-78
2023/04/16 00:27:44;;;;;;;10.50;6.90;;;;;;;10.77;77.13;99926.91;131308;1253;107506;-77
2023/04/16 00:30:50;;;;;;;8.50;7.00;;;;;;;10.77;76.96;99925.52;131156;1253;107473;-77
2023/04/16 00:33:56;;;;;;;8.80;7.30;;;;;;;10.78;77.14;99926.08;131112;1260;145908;-77
2023/04/16 00:37:01;;;;;;;8.40;7.40;;;;;;;10.77;76.99;99928.67;131184;1253;107485;-77
2023/04/16 00:40:08;;;;;;;9.70;7.80;;;;;;;10.74;76.74;99926.13;131209;1253;107597;-79
2023/04/16 00:43:23;;;;;;;9.60;7.80;;;;;;;10.72;76.95;99930.69;131193;1253;106553;-77
2023/04/16 00:46:29;;;;;;;9.10;6.60;;;;;;;10.70;77.24;99928.45;131311;1250;107528;-77
2023/04/16 00:49:35;;;;;;;8.00;6.20;;;;;;;10.67;77.23;99932.42;131408;1251;106091;-77
2023/04/16 00:52:41;;;;;;;9.40;7.30;;;;;;;10.68;77.33;99937.11;131073;1264;106787;-77
2023/04/16 00:55:46;;;;;;;9.00;7.30;;;;;;;10.71;77.20;99937.48;131159;1253;107616;-77
2023/04/16 00:58:52;;;;;;;7.40;6.00;;;;;;;10.74;77.27;99938.98;131277;1254;107373;-77
2023/04/16 01:01:57;;;;;;;8.00;6.90;;;;;;;10.74;77.25;99942.87;131273;1253;107504;-77
2023/04/16 01:05:04;;;;;;;9.30;7.30;;;;;;;10.74;77.31;99943.77;131128;1254;107469;-78
2023/04/16 01:08:17;;;;;;;8.70;7.20;;;;;;;10.73;77.34;99942.30;131306;1253;107349;-78
2023/04/16 01:11:22;;;;;;;9.20;7.40;;;;;;;10.69;77.45;99943.63;131346;1251;107492;-77
2023/04/16 01:14:28;;;;;;;9.00;6.80;;;;;;;10.65;77.55;99948.13;131346;1253;107402;-78
2023/04/16 01:17:33;;;;;;;8.00;6.20;;;;;;;10.62;77.89;99945.44;131407;1249;107249;-78
2023/04/16 01:20:39;;;;;;;16.60;13.70;;;;;;;10.61;77.32;99944.40;131410;1254;107622;-77
2023/04/16 01:23:45;;;;;;;13.80;10.90;;;;;;;10.64;77.37;99946.30;131468;1251;107518;-76
2023/04/16 01:26:51;;;;;;;12.30;8.80;;;;;;;10.65;77.50;99942.27;131166;1253;107475;-77
2023/04/16 01:29:56;;;;;;;16.20;12.30;;;;;;;10.67;77.61;99952.20;131265;1253;107239;-78
2023/04/16 01:33:09;;;;;;;16.10;12.00;;;;;;;10.67;77.59;99952.02;131232;1254;107530;-79
2023/04/16 01:36:14;;;;;;;14.80;11.10;;;;;;;10.66;77.71;99949.28;131300;1254;107272;-77
2023/04/16 01:39:20;;;;;;;9.70;7.80;;;;;;;10.65;77.52;99952.95;131291;1253;107521;-77
2023/04/16 01:42:25;;;;;;;8.40;6.90;;;;;;;10.61;77.55;99951.70;131432;1253;107550;-77
2023/04/16 01:45:33;;;;;;;10.20;7.40;;;;;;;10.57;77.73;99949.48;131159;1256;106250;-77
2023/04/16 01:48:38;;;;;;;19.80;14.00;;;;;;;10.59;78.03;99954.03;131229;1253;107556;-78
2023/04/16 01:51:44;;;;;;;17.10;13.00;;;;;;;10.63;77.76;99953.34;131106;1253;107524;-77
2023/04/16 01:54:49;;;;;;;15.80;12.30;;;;;;;10.64;77.88;99951.84;131138;1261;107589;-77
2023/04/16 01:57:55;;;;;;;20.90;16.40;;;;;;;10.64;77.85;99955.34;131231;1253;107647;-77
2023/04/16 02:01:04;;;;;;;14.20;11.50;;;;;;;10.64;77.91;99952.85;131338;1254;107486;-77
2023/04/16 02:04:11;;;;;;;15.30;12.30;;;;;;;10.63;77.95;99950.48;131292;1254;107524;-77
2023/04/16 02:07:17;;;;;;;14.30;11.20;;;;;;;10.63;78.06;99957.12;131223;1255;106706;-77
2023/04/16 02:10:22;;;;;;;17.00;11.90;;;;;;;10.60;77.94;99962.51;131386;1253;107549;-77
2023/04/16 02:13:28;;;;;;;10.70;8.60;;;;;;;10.56;78.16;99963.70;131159;1253;107472;-77
2023/04/16 02:16:33;;;;;;;10.70;7.20;;;;;;;10.52;78.27;99965.41;131002;1256;107712;-76
2023/04/16 02:19:55;;;;;;;9.30;7.50;;;;;;;10.53;78.27;99967.55;131380;1255;108534;-77
2023/04/16 02:23:01;;;;;;;8.90;7.20;;;;;;;10.53;78.02;99972.62;131191;1253;107428;-77
2023/04/16 02:26:06;;;;;;;11.60;9.60;;;;;;;10.53;78.18;99977.05;131251;1264;107472;-77
2023/04/16 02:29:13;;;;;;;10.40;8.30;;;;;;;10.56;78.13;99976.79;131444;1253;107440;-77
2023/04/16 02:32:22;;;;;;;8.80;7.80;;;;;;;10.57;78.55;99982.16;131445;1253;107436;-77
2023/04/16 02:35:28;;;;;;;9.20;7.20;;;;;;;10.58;78.05;99980.49;131426;1251;107603;-77
2023/04/16 02:38:36;;;;;;;8.50;7.20;;;;;;;10.56;78.44;99981.19;131154;1251;107269;-78
2023/04/16 02:41:41;;;;;;;9.20;7.10;;;;;;;10.54;78.36;99984.45;131383;1253;107226;-78
2023/04/16 02:44:47;;;;;;;6.90;5.60;;;;;;;10.52;78.40;99985.77;131434;1253;107496;-77
2023/04/16 02:47:52;;;;;;;7.00;6.30;;;;;;;10.50;78.58;99988.67;131252;1253;107754;-77
2023/04/16 02:50:58;;;;;;;6.60;5.90;;;;;;;10.50;78.46;99995.23;131347;1257;108713;-76
2023/04/16 02:54:03;;;;;;;8.30;6.90;;;;;;;10.51;78.42;99998.15;131364;1251;107529;-77
2023/04/16 02:57:09;;;;;;;7.90;6.90;;;;;;;10.52;78.44;99994.83;131498;1261;107337;-77
2023/04/16 03:00:15;;;;;;;11.20;8.40;;;;;;;10.54;78.71;99997.39;131391;1253;107444;-77
2023/04/16 03:03:21;;;;;;;9.30;7.40;;;;;;;10.55;78.45;99995.76;131115;1256;106446;-77
2023/04/16 03:06:27;;;;;;;9.10;7.40;;;;;;;10.52;78.43;100003.69;131352;1253;108517;-77
2023/04/16 03:09:32;;;;;;;7.30;6.00;;;;;;;10.49;78.47;100004.57;131112;1253;107544;-78
2023/04/16 03:12:38;;;;;;;7.60;5.80;;;;;;;10.46;78.93;100005.52;131212;1263;107645;-79
2023/04/16 03:15:50;;;;;;;9.70;7.50;;;;;;;10.47;78.50;100012.13;131149;1254;107493;-78
2023/04/16 03:18:55;;;;;;;8.80;7.00;;;;;;;10.48;78.79;100009.67;131225;1261;108823;-77
2023/04/16 03:22:01;;;;;;;7.50;6.60;;;;;;;10.49;78.49;100012.92;131151;1248;107511;-77
2023/04/16 03:25:08;;;;;;;8.40;7.00;;;;;;;10.50;78.68;100011.61;131180;1256;107515;-78
2023/04/16 03:28:13;;;;;;;8.40;7.30;;;;;;;10.50;78.86;100017.05;131243;1253;107419;-76
2023/04/16 03:31:19;;;;;;;8.80;7.30;;;;;;;10.49;78.62;100017.15;131132;1257;107486;-77
2023/04/16 03:34:25;;;;;;;8.40;6.90;;;;;;;10.47;78.74;100018.44;131356;1254;107473;-77
2023/04/16 03:37:30;;;;;;;9.10;6.30;;;;;;;10.45;78.73;100023.16;131341;1253;107230;-77
2023/04/16 03:40:36;;;;;;;7.70;6.00;;;;;;;10.42;78.80;100021.83;131334;1253;108662;-77
2023/04/16 03:43:42;;;;;;;7.80;6.80;;;;;;;10.41;78.55;100023.64;131369;1249;107516;-77
2023/04/16 03:46:49;;;;;;;9.30;7.50;;;;;;;10.44;78.44;100026.95;131278;1253;107416;-78
2023/04/16 03:49:54;;;;;;;9.90;7.30;;;;;;;10.46;78.63;100029.09;131245;1254;107337;-77
2023/04/16 03:53:00;;;;;;;9.00;7.50;;;;;;;10.46;78.68;100032.92;131253;1261;106561;-77
2023/04/16 03:56:06;;;;;;;10.60;8.20;;;;;;;10.45;78.82;100039.50;131440;1253;107899;-77
2023/04/16 03:59:12;;;;;;;11.80;8.80;;;;;;;10.43;78.75;100041.96;131334;1253;107564;-77
2023/04/16 04:02:17;;;;;;;12.00;9.40;;;;;;;10.42;78.59;100043.34;131322;1254;107540;-78
2023/04/16 04:05:23;;;;;;;11.90;10.20;;;;;;;10.41;78.54;100045.40;131255;1253;108573;-78
2023/04/16 04:08:30;;;;;;;9.90;7.80;;;;;;;10.39;78.54;100046.45;131154;1253;107506;-77
2023/04/16 04:11:36;;;;;;;8.30;6.10;;;;;;;10.38;78.79;100048.56;131343;1253;107586;-78
2023/04/16 04:14:42;;;;;;;9.40;7.60;;;;;;;10.40;78.67;100053.50;131163;1248;107480;-78
2023/04/16 04:17:48;;;;;;;8.80;7.80;;;;;;;10.44;78.54;100055.56;131273;1255;107343;-78
2023/04/16 04:20:54;;;;;;;8.10;7.20;;;;;;;10.46;78.26;100057.88;131158;1261;106486;-78
2023/04/16 04:24:02;;;;;;;9.20;7.60;;;;;;;10.49;78.23;100061.31;131529;1253;107993;-78
2023/04/16 04:27:08;;;;;;;9.30;7.40;;;;;;;10.50;78.40;100061.86;131654;1253;107533;-78
2023/04/16 04:30:14;;;;;;;10.80;7.60;;;;;;;10.51;78.45;100060.03;131499;1249;107534;-77
2023/04/16 04:33:20;;;;;;;10.60;8.60;;;;;;;10.52;78.36;100058.27;131864;1253;106499;-78
2023/04/16 04:36:26;;;;;;;8.40;7.50;;;;;;;10.53;78.48;100064.19;131436;1253;107528;-77
2023/04/16 04:39:32;;;;;;;8.40;7.20;;;;;;;10.52;78.40;100066.88;131211;1262;107503;-77
2023/04/16 04:42:38;;;;;;;8.90;7.10;;;;;;;10.56;78.55;100068.35;131313;1261;107432;-78
2023/04/16 04:45:45;;;;;;;9.70;7.40;;;;;;;10.65;78.49;100075.46;131226;1254;107386;-77
2023/04/16 04:48:51;;;;;;;8.90;7.30;;;;;;;10.73;78.38;100077.20;131098;1254;107528;-77
2023/04/16 04:51:56;;;;;;;9.50;7.90;;;;;;;10.75;77.93;100079.78;131335;1254;107436;-78
2023/04/16 04:55:02;;;;;;;8.20;7.30;;;;;;;10.77;78.11;100078.86;131174;1248;107518;-77
2023/04/16 04:58:08;;;;;;;8.80;7.40;;;;;;;10.81;77.62;100081.98;131161;1263;108630;-78
2023/04/16 05:01:14;;;;;;;13.70;8.70;;;;;;;10.81;77.45;100083.59;131373;1255;107625;-78
2023/04/16 05:04:20;;;;;;;12.70;8.90;;;;;;;10.81;77.34;100094.60;131464;1254;106588;-77
2023/04/16 05:07:25;;;;;;;15.70;9.50;;;;;;;10.81;77.25;100093.09;131225;1251;107901;-77
2023/04/16 05:10:31;;;;;;;11.60;8.60;;;;;;;10.81;77.24;100097.13;131158;1253;107239;-77
2023/04/16 05:13:36;;;;;;;16.40;9.60;;;;;;;10.80;77.13;100099.60;131130;1253;107434;-77
2023/04/16 05:16:43;;;;;;;9.60;8.00;;;;;;;10.75;77.16;100101.70;131142;1254;107535;-77
2023/04/16 05:19:49;;;;;;;9.40;7.00;;;;;;;10.74;77.25;100099.43;131180;1253;107211;-76
2023/04/16 05:22:54;;;;;;;8.00;7.20;;;;;;;10.77;77.43;100100.23;131216;1254;107529;-76
2023/04/16 05:26:00;;;;;;;9.60;7.70;;;;;;;10.89;77.40;100102.58;131308;1254;108590;-77
2023/04/16 05:29:05;;;;;;;9.50;7.80;;;;;;;11.03;77.07;100103.04;131374;1253;107860;-80
2023/04/16 05:32:11;;;;;;;10.80;7.90;;;;;;;11.13;77.29;100101.13;131417;1253;107659;-77
2023/04/16 05:35:16;;;;;;;9.50;7.90;;;;;;;11.24;77.22;100101.77;131062;1261;107473;-78
2023/04/16 05:38:22;;;;;;;12.00;9.30;;;;;;;11.33;76.95;100103.30;131271;1248;108616;-76
2023/04/16 05:41:27;;;;;;;10.90;9.10;;;;;;;11.37;76.75;100104.65;131650;1251;107514;-76
2023/04/16 05:44:33;;;;;;;9.50;8.00;;;;;;;11.40;76.48;100105.41;131544;1249;107503;-75
2023/04/16 05:47:39;;;;;;;10.40;8.90;;;;;;;11.45;76.63;100112.52;131274;1258;107503;-76
2023/04/16 05:50:44;;;;;;;9.70;8.20;;;;;;;11.48;76.23;100113.47;131294;1261;107492;-75
2023/04/16 05:53:49;;;;;;;9.40;8.30;;;;;;;11.49;76.11;100116.73;131397;1252;107635;-78
2023/04/16 05:56:55;;;;;;;9.50;7.50;;;;;;;11.54;76.17;100120.17;131338;1254;107429;-76
2023/04/16 06:00:00;;;;;;;7.70;6.80;;;;;;;11.56;76.07;100125.79;131379;1253;107511;-77
2023/04/16 06:03:06;;;;;;;9.30;7.60;;;;;;;11.60;76.00;100130.19;131344;1252;107264;-74
2023/04/16 06:06:11;;;;;;;10.50;8.60;;;;;;;11.69;75.96;100129.80;131229;1261;106788;-74
2023/04/16 06:09:17;;;;;;;10.50;8.70;;;;;;;11.78;75.81;100141.05;131079;1253;107399;-76
2023/04/16 06:12:23;;;;;;;10.60;8.90;;;;;;;11.85;75.41;100142.76;131213;1253;107233;-77
2023/04/16 06:15:28;;;;;;;10.20;8.90;;;;;;;11.89;75.42;100144.05;131209;1253;107523;-77
2023/04/16 06:18:34;;;;;;;9.60;8.60;;;;;;;11.90;75.22;100143.42;131285;1254;107265;-74
2023/04/16 06:21:39;;;;;;;10.30;9.20;;;;;;;11.87;75.09;100144.30;131209;1253;107533;-75
2023/04/16 06:24:45;;;;;;;10.50;9.40;;;;;;;11.84;75.12;100149.12;131190;1253;107472;-75
2023/04/16 06:27:50;;;;;;;10.40;9.10;;;;;;;11.85;74.99;100154.86;131158;1247;107478;-75
2023/04/16 06:30:56;;;;;;;10.30;9.20;;;;;;;11.88;75.02;100150.09;131299;1254;107523;-75
2023/04/16 06:34:01;;;;;;;12.20;9.40;;;;;;;11.93;75.12;100155.10;131502;1251;107536;-76
2023/04/16 06:37:07;;;;;;;11.90;9.90;;;;;;;11.95;75.05;100152.84;131425;1251;107333;-76
2023/04/16 06:40:13;;;;;;;12.10;10.00;;;;;;;11.94;74.88;100156.52;131180;1254;106494;-76
2023/04/16 06:43:19;;;;;;;13.90;11.30;;;;;;;11.91;74.79;100162.05;131269;1256;107479;-75
2023/04/16 06:46:24;;;;;;;12.60;10.60;;;;;;;11.89;74.65;100168.09;131311;1249;107254;-76
2023/04/16 06:49:30;;;;;;;11.10;9.40;;;;;;;11.90;74.73;100172.31;131376;1261;107506;-74
2023/04/16 06:52:35;;;;;;;10.20;8.40;;;;;;;11.91;74.65;100167.73;131305;1253;107387;-75
2023/04/16 06:55:41;;;;;;;11.50;9.40;;;;;;;11.98;74.55;100173.08;131152;1254;107495;-75
2023/04/16 06:58:49;;;;;;;11.80;9.90;;;;;;;12.06;74.21;100174.75;131223;1254;106560;-75
2023/04/16 07:01:55;;;;;;;13.20;11.20;;;;;;;12.13;74.15;100175.00;131385;1253;107579;-77
2023/04/16 07:05:00;;;;;;;14.20;11.20;;;;;;;12.19;74.08;100177.41;131422;1248;107244;-77
2023/04/16 07:08:06;;;;;;;14.40;10.70;;;;;;;12.24;74.12;100177.63;131347;1251;108361;-76
2023/04/16 07:11:12;;;;;;;14.30;12.00;;;;;;;12.28;73.94;100179.66;131261;1261;107540;-76
2023/04/16 07:14:17;;;;;;;20.00;12.30;;;;;;;12.29;73.90;100178.27;131329;1263;107374;-77
2023/04/16 07:17:22;;;;;;;11.30;9.80;;;;;;;12.35;73.61;100185.55;131286;1248;107619;-75
2023/04/16 07:20:28;;;;;;;12.30;9.80;;;;;;;12.40;73.51;100182.84;131428;1261;108442;-77
2023/04/16 07:23:33;;;;;;;14.50;10.90;;;;;;;12.43;73.33;100186.98;131294;1254;107567;-76
2023/04/16 07:26:51;;;;;;;14.80;11.80;;;;;;;12.45;73.50;100190.84;131550;1254;107639;-77
2023/04/16 07:29:59;;;;;;;12.10;10.60;;;;;;;12.47;73.28;100196.87;131860;1260;107957;-76
2023/04/16 07:33:05;;;;;;;12.30;10.90;;;;;;;12.47;73.09;100198.50;131908;1253;107254;-78
2023/04/16 07:36:11;;;;;;;12.60;10.60;;;;;;;12.48;73.25;100200.17;131601;1251;108222;-77
2023/04/16 07:39:16;;;;;;;13.50;11.40;;;;;;;12.52;73.44;100201.10;131395;1253;107524;-78
2023/04/16 07:42:21;;;;;;;12.90;10.80;;;;;;;12.55;73.34;100210.05;131499;1254;107526;-79
2023/04/16 07:45:27;;;;;;;14.80;12.00;;;;;;;12.54;73.00;100214.30;131673;1253;106534;-81
2023/04/16 07:48:32;;;;;;;13.30;10.50;;;;;;;12.51;72.97;100220.69;131623;1261;107475;-79
2023/04/16 07:51:38;;;;;;;12.60;10.20;;;;;;;12.44;73.12;100227.20;131444;1251;107515;-76
2023/04/16 07:54:45;;;;;;;13.50;11.10;;;;;;;12.40;73.12;100234.42;131120;1254;106705;-76
2023/04/16 07:57:51;;;;;;;12.60;9.90;;;;;;;12.39;72.93;100234.29;131330;1248;108094;-76
2023/04/16 08:00:58;;;;;;;11.60;9.10;;;;;;;12.34;72.91;100232.80;131325;1255;106685;-76
2023/04/16 08:04:04;;;;;;;11.70;9.90;;;;;;;12.34;72.83;100233.08;131660;1260;105760;-77
2023/04/16 08:07:10;;;;;;;12.10;10.40;;;;;;;12.32;72.62;100238.45;131496;1254;107468;-76
2023/04/16 08:10:15;;;;;;;17.80;15.90;;;;;;;12.29;72.91;100240.33;131219;1254;107341;-78
2023/04/16 08:13:21;;;;;;;49.50;28.90;;;;;;;12.30;72.95;100243.16;131566;1254;107530;-78
2023/04/16 08:16:26;;;;;;;26.70;16.70;;;;;;;12.31;72.97;100249.77;131442;1253;107445;-78
2023/04/16 08:19:32;;;;;;;48.80;26.00;;;;;;;12.39;72.93;100252.85;131275;1253;107680;-77
2023/04/16 08:22:37;;;;;;;17.80;12.10;;;;;;;12.47;72.50;100255.00;131451;1254;106768;-77
2023/04/16 08:25:43;;;;;;;17.90;12.60;;;;;;;12.50;72.36;100253.97;131428;1253;107499;-76
2023/04/16 08:28:48;;;;;;;24.20;14.70;;;;;;;12.51;72.34;100256.23;131510;1248;107981;-77
2023/04/16 08:31:55;;;;;;;49.10;25.20;;;;;;;12.56;72.25;100258.25;131272;1251;107510;-74
2023/04/16 08:35:00;;;;;;;20.10;13.50;;;;;;;12.63;72.06;100257.33;131303;1257;107383;-73
2023/04/16 08:38:06;;;;;;;40.70;23.20;;;;;;;12.66;72.22;100259.94;131423;1253;107608;-77
2023/04/16 08:41:14;;;;;;;26.60;16.30;;;;;;;12.68;71.97;100260.48;131422;1251;106533;-74
2023/04/16 08:44:25;;;;;;;19.20;14.60;;;;;;;12.66;72.14;100264.26;131303;1251;107245;-73
2023/04/16 08:47:34;;;;;;;12.80;11.30;;;;;;;12.61;71.85;100268.66;131114;1251;108096;-73
2023/04/16 08:50:40;;;;;;;11.70;10.40;;;;;;;12.55;72.10;100275.09;131255;1254;108554;-74
2023/04/16 08:53:52;;;;;;;12.30;10.40;;;;;;;12.54;71.83;100271.94;131500;1254;107997;-73
2023/04/16 08:56:59;;;;;;;13.20;11.10;;;;;;;12.57;71.92;100275.55;131802;1251;107544;-75
2023/04/16 09:00:06;;;;;;;15.20;12.20;;;;;;;12.66;71.97;100278.35;131867;1248;107383;-73
2023/04/16 09:03:12;;;;;;;15.50;10.90;;;;;;;12.73;71.77;100278.78;131452;1248;107614;-72
2023/04/16 09:06:18;;;;;;;13.40;10.80;;;;;;;12.77;71.82;100283.23;131368;1254;107508;-72
2023/04/16 09:09:25;;;;;;;11.60;10.30;;;;;;;12.82;71.80;100285.77;131592;1251;107523;-73
2023/04/16 09:12:31;;;;;;;12.10;10.30;;;;;;;12.88;71.80;100286.59;131355;1249;107353;-72
2023/04/16 09:15:37;;;;;;;12.00;10.40;;;;;;;12.95;71.70;100289.45;131316;1253;107817;-75
2023/04/16 09:18:46;;;;;;;11.60;10.30;;;;;;;13.02;71.69;100289.80;131336;1248;109318;-74
2023/04/16 09:21:52;;;;;;;12.10;10.60;;;;;;;13.06;71.55;100297.54;131221;1248;107273;-76
2023/04/16 09:24:57;;;;;;;11.10;9.90;;;;;;;13.13;71.41;100297.16;131225;1250;107519;-77
2023/04/16 09:28:03;;;;;;;11.30;10.00;;;;;;;13.22;71.48;100297.79;131544;1251;107566;-74
2023/04/16 09:31:13;;;;;;;11.60;10.30;;;;;;;13.27;71.15;100299.65;131657;1250;107222;-75
2023/04/16 09:34:18;;;;;;;11.80;10.00;;;;;;;13.29;71.13;100294.08;131401;1261;106673;-75
2023/04/16 09:37:24;;;;;;;15.20;12.20;;;;;;;13.35;70.99;100302.40;131171;1254;108135;-75
2023/04/16 09:40:30;;;;;;;17.00;12.70;;;;;;;13.41;70.64;100300.40;131240;1253;108246;-75
2023/04/16 09:43:36;;;;;;;16.10;13.10;;;;;;;13.46;70.52;100308.24;131574;1254;107530;-74
2023/04/16 09:46:43;;;;;;;16.10;13.30;;;;;;;13.49;70.64;100309.43;131587;1253;107624;-74
2023/04/16 09:49:49;;;;;;;14.10;12.30;;;;;;;13.62;70.37;100311.19;131434;1254;107449;-74
2023/04/16 09:52:54;;;;;;;16.50;13.50;;;;;;;13.77;70.14;100308.09;131418;1264;107785;-75
2023/04/16 09:56:01;;;;;;;14.30;11.60;;;;;;;13.92;70.25;100311.16;131475;1253;107624;-74
2023/04/16 09:59:08;;;;;;;16.40;13.20;;;;;;;14.03;70.07;100315.94;131403;1253;108109;-76
2023/04/16 10:02:14;;;;;;;16.00;13.30;;;;;;;14.10;70.21;100316.25;131313;1253;107470;-74
2023/04/16 10:05:21;;;;;;;15.70;13.40;;;;;;;14.13;69.55;100319.48;131664;1253;108342;-75
2023/04/16 10:08:27;;;;;;;23.90;16.10;;;;;;;14.10;69.48;100324.27;131664;1249;107541;-74
2023/04/16 10:11:33;;;;;;;30.00;18.10;;;;;;;14.08;69.60;100324.33;132376;1250;107417;-75
2023/04/16 10:14:39;;;;;;;36.10;20.00;;;;;;;14.11;69.42;100325.89;135379;1248;107413;-74
2023/04/16 10:17:45;;;;;;;28.10;17.40;;;;;;;14.06;69.32;100332.77;131376;1253;107511;-74
2023/04/16 10:20:51;;;;;;;32.80;19.20;;;;;;;14.05;69.11;100329.84;131546;1255;105874;-74
2023/04/16 10:23:56;;;;;;;22.50;15.90;;;;;;;14.03;69.10;100330.42;131433;1264;107350;-74
2023/04/16 10:27:02;;;;;;;19.20;14.00;;;;;;;14.03;69.04;100336.16;131471;1254;107571;-74
2023/04/16 10:30:11;;;;;;;15.60;13.20;;;;;;;13.99;68.77;100334.96;131536;1254;107635;-74
2023/04/16 10:33:16;;;;;;;17.50;14.40;;;;;;;13.92;68.84;100337.35;131318;1253;107430;-74
2023/04/16 10:36:26;;;;;;;19.50;15.10;;;;;;;13.96;68.86;100338.33;131140;1250;108139;-74
2023/04/16 10:39:36;;;;;;;15.20;13.00;;;;;;;14.00;68.87;100339.13;131399;1254;107500;-74
2023/04/16 10:42:41;;;;;;;30.60;17.90;;;;;;;14.11;68.90;100335.27;131321;1253;107284;-73
2023/04/16 10:45:49;;;;;;;20.00;14.70;;;;;;;14.18;68.55;100336.40;131450;1250;107552;-74
2023/04/16 10:48:56;;;;;;;17.00;12.70;;;;;;;14.22;68.49;100337.05;131123;1254;106276;-73
2023/04/16 10:52:09;;;;;;;21.60;16.30;;;;;;;14.26;68.59;100337.84;131476;1253;107561;-74
2023/04/16 10:55:18;;;;;;;17.30;14.10;;;;;;;14.29;68.46;100343.02;131559;1250;107520;-74
2023/04/16 10:58:30;;;;;;;19.80;14.90;;;;;;;14.29;67.98;100346.98;131434;1248;107277;-74
2023/04/16 11:01:37;;;;;;;19.80;13.90;;;;;;;14.25;67.97;100348.58;131439;1254;107902;-75
2023/04/16 11:04:44;;;;;;;15.30;11.90;;;;;;;14.27;67.96;100349.20;131541;1251;107409;-75
2023/04/16 11:07:50;;;;;;;15.50;12.10;;;;;;;14.33;67.88;100353.14;131435;1251;107256;-75
2023/04/16 11:10:58;;;;;;;14.30;11.40;;;;;;;14.41;67.74;100357.27;131388;1253;107504;-74
2023/04/16 11:14:06;;;;;;;12.60;9.80;;;;;;;14.47;67.60;100362.77;131358;1251;108486;-76
2023/04/16 11:17:11;;;;;;;10.60;9.50;;;;;;;14.48;67.29;100359.52;131190;1253;107237;-75
2023/04/16 11:20:21;;;;;;;11.30;9.90;;;;;;;14.48;67.42;100361.39;131271;1253;107533;-77
2023/04/16 11:23:26;;;;;;;23.10;15.30;;;;;;;14.54;67.33;100365.55;131300;1250;107522;-74
2023/04/16 11:26:31;;;;;;;24.90;16.70;;;;;;;14.62;67.16;100364.17;131310;1253;106512;-76
2023/04/16 11:29:37;;;;;;;44.00;25.80;;;;;;;14.63;67.13;100365.88;131298;1253;107579;-74
2023/04/16 11:32:43;;;;;;;26.20;17.50;;;;;;;14.71;66.93;100365.33;131252;1249;107315;-74
2023/04/16 11:35:58;;;;;;;15.50;12.90;;;;;;;14.79;66.72;100369.92;131210;1254;107557;-77
2023/04/16 11:39:04;;;;;;;14.20;12.20;;;;;;;14.81;66.41;100367.23;131278;1260;107225;-76
2023/04/16 11:42:09;;;;;;;12.40;11.10;;;;;;;14.83;66.20;100365.88;131194;1251;107261;-75
2023/04/16 11:45:17;;;;;;;11.80;10.50;;;;;;;14.86;66.26;100370.15;131577;1253;105539;-75
2023/04/16 11:48:22;;;;;;;13.00;10.80;;;;;;;14.90;66.00;100370.63;131359;1253;107687;-75
2023/04/16 11:51:29;;;;;;;11.60;10.00;;;;;;;14.91;66.03;100373.73;131123;1253;107350;-75
2023/04/16 11:54:35;;;;;;;11.80;10.10;;;;;;;14.84;65.55;100377.77;131412;1253;107389;-76
2023/04/16 11:57:41;;;;;;;11.80;10.60;;;;;;;14.71;65.82;100376.36;131184;1248;109471;-76
2023/04/16 12:00:47;;;;;;;11.20;10.00;;;;;;;14.69;65.72;100375.34;131342;1248;106460;-76
2023/04/16 12:04:03;;;;;;;11.20;10.00;;;;;;;14.68;65.74;100376.89;131242;1251;107299;-76
2023/04/16 12:07:10;;;;;;;10.20;8.80;;;;;;;14.65;65.47;100374.83;131324;1253;107523;-77
2023/04/16 12:10:16;;;;;;;10.10;9.10;;;;;;;14.62;65.23;100373.02;131231;1260;107265;-75
2023/04/16 12:13:21;;;;;;;9.50;8.60;;;;;;;14.62;65.09;100370.07;131515;1249;107392;-75
2023/04/16 13:01:56;;;;;;;7.70;7.00;;;;;;;15.65;62.71;100362.36;131533;1253;97957;-74
2023/04/16 13:05:02;;;;;;;7.30;6.50;;;;;;;15.67;62.89;100360.47;131331;1253;98402;-74
2023/04/16 13:08:08;;;;;;;10.70;8.70;;;;;;;15.76;62.77;100361.91;131337;1251;97985;-75
2023/04/16 13:11:13;;;;;;;10.00;8.70;;;;;;;15.85;62.30;100359.30;131249;1251;99004;-75
2023/04/16 13:14:20;;;;;;;10.60;9.00;;;;;;;15.90;62.58;100362.57;131423;1253;97934;-75
2023/04/16 13:17:25;;;;;;;8.60;7.70;;;;;;;15.95;62.28;100363.98;131554;1249;97925;-75
2023/04/16 13:20:30;;;;;;;8.50;7.70;;;;;;;15.99;62.15;100363.65;131620;1249;99117;-75
2023/04/16 13:23:37;;;;;;;9.20;8.10;;;;;;;16.07;62.35;100366.29;131477;1264;97982;-76
2023/04/16 13:26:42;;;;;;;8.10;7.30;;;;;;;16.10;62.12;100362.89;131453;1253;99160;-73
2023/04/16 13:29:47;;;;;;;8.50;7.60;;;;;;;16.13;61.99;100368.14;131523;1253;97956;-75
2023/04/16 13:32:53;;;;;;;8.30;7.40;;;;;;;16.15;61.94;100368.70;131476;1253;98030;-75
2023/04/16 13:35:58;;;;;;;8.50;7.60;;;;;;;16.22;61.89;100370.91;131464;1248;97953;-71
2023/04/16 13:39:09;;;;;;;8.70;7.80;;;;;;;16.24;61.63;100370.90;131294;1252;99164;-71
2023/04/16 13:42:21;;;;;;;9.20;7.50;;;;;;;16.25;61.33;100370.33;131523;1250;97983;-71
2023/04/16 13:45:26;;;;;;;9.10;8.20;;;;;;;16.29;61.18;100371.38;131532;1251;97947;-71
2023/04/16 13:48:32;;;;;;;9.20;8.30;;;;;;;16.26;61.21;100373.86;131232;1250;97938;-71
2023/04/16 13:51:37;;;;;;;9.00;8.10;;;;;;;16.25;61.14;100372.73;131237;1253;99106;-71
2023/04/16 13:54:43;;;;;;;9.30;8.30;;;;;;;16.23;60.99;100374.23;131197;1253;97966;-71
2023/04/16 13:57:58;;;;;;;9.30;8.40;;;;;;;16.18;60.52;100371.27;131120;1253;99131;-71
2023/04/16 14:01:03;;;;;;;8.80;7.70;;;;;;;16.14;60.91;100372.80;131169;1250;98027;-71
2023/04/16 14:04:09;;;;;;;8.60;7.80;;;;;;;16.17;60.75;100373.04;131175;1253;97951;-72
2023/04/16 14:07:15;;;;;;;9.10;8.20;;;;;;;16.21;60.78;100370.48;131336;1252;98011;-71
2023/04/16 14:10:21;;;;;;;8.10;6.90;;;;;;;16.22;60.68;100367.55;131342;1253;97960;-71
2023/04/16 14:13:26;;;;;;;8.30;7.50;;;;;;;16.21;60.19;100369.42;131375;1253;97944;-71
2023/04/16 14:16:32;;;;;;;8.30;7.50;;;;;;;16.22;60.45;100373.31;131575;1253;99147;-71
2023/04/16 14:19:37;;;;;;;8.30;7.50;;;;;;;16.18;59.90;100373.60;131492;1250;97935;-71
2023/04/16 14:22:45;;;;;;;9.10;8.20;;;;;;;16.15;60.32;100375.35;131226;1251;98035;-71
2023/04/16 14:25:51;;;;;;;8.40;7.60;;;;;;;16.16;59.83;100377.75;131261;1251;98043;-71
2023/04/16 14:28:56;;;;;;;9.00;8.10;;;;;;;16.14;59.62;100373.51;131401;1253;98731;-71
2023/04/16 14:32:02;;;;;;;9.70;8.10;;;;;;;16.06;59.20;100370.70;131350;1253;97954;-71
2023/04/16 14:35:09;;;;;;;9.40;8.50;;;;;;;16.00;59.29;100373.43;131422;1254;97954;-71
2023/04/16 14:38:14;;;;;;;9.50;8.00;;;;;;;15.91;59.13;100375.17;131282;1250;97945;-71
2023/04/16 14:41:20;;;;;;;9.70;8.50;;;;;;;15.78;58.58;100372.48;131217;1253;99137;-71
2023/04/16 14:44:25;;;;;;;9.00;8.10;;;;;;;15.53;57.96;100373.08;131387;1253;99105;-71
2023/04/16 14:47:31;;;;;;;10.40;9.30;;;;;;;15.26;58.66;100369.25;131166;1249;99157;-71